sensor_id;sensor_type;location;lat;lon;timestamp;pressure;altitude;pressure_sealevel;temperature;humidity
51928;BME280;37953;52.806;18.270;2022-12-20T00:01:23;101066.41;;;1.38;100.00
51928;BME280;37953;52.806;18.270;2022-12-20T00:03:50;101066.47;;;1.39;100.00
51928;BME280;37953;52.806;18.270;2022-12-20T00:06:18;101072.50;;;1.40;100.00
51928;BME280;37953;52.806;18.270;2022-12-20T00:08:44;101070.81;;;1.40;100.00
51928;BME280;37953;52.806;18.270;2022-12-20T00:11:11;101076.88;;;1.42;100.00
51928;BME280;37953;52.806;18.270;2022-12-20T00:13:38;101073.44;;;1.42;100.00
51928;BME280;37953;52.806;18.270;2022-12-20T00:16:05;101067.59;;;1.45;100.00
51928;BME280;37953;52.806;18.270;2022-12-20T00:18:32;101063.25;;;1.43;100.00
51928;BME280;37953;52.806;18.270;2022-12-20T00:20:59;101063.44;;;1.47;100.00
51928;BME280;37953;52.806;18.270;2022-12-20T00:23:26;101060.06;;;1.48;100.00
51928;BME280;37953;52.806;18.270;2022-12-20T00:26:11;101051.63;;;1.50;100.00
51928;BME280;37953;52.806;18.270;2022-12-20T00:28:38;101055.09;;;1.51;100.00
51928;BME280;37953;52.806;18.270;2022-12-20T00:31:05;101052.59;;;1.52;100.00
51928;BME280;37953;52.806;18.270;2022-12-20T00:33:44;101048.38;;;1.53;100.00
51928;BME280;37953;52.806;18.270;2022-12-20T00:36:11;101040.59;;;1.51;100.00
51928;BME280;37953;52.806;18.270;2022-12-20T00:38:37;101033.13;;;1.56;100.00
51928;BME280;37953;52.806;18.270;2022-12-20T00:41:06;101030.66;;;1.57;100.00
51928;BME280;37953;52.806;18.270;2022-12-20T00:43:33;101047.75;;;1.58;100.00
51928;BME280;37953;52.806;18.270;2022-12-20T00:46:00;101043.59;;;1.60;100.00
51928;BME280;37953;52.806;18.270;2022-12-20T00:48:26;101041.94;;;1.61;100.00
51928;BME280;37953;52.806;18.270;2022-12-20T00:50:57;101049.66;;;1.62;100.00
51928;BME280;37953;52.806;18.270;2022-12-20T00:53:25;101047.09;;;1.62;100.00
51928;BME280;37953;52.806;18.270;2022-12-20T00:55:51;101052.31;;;1.64;100.00
51928;BME280;37953;52.806;18.270;2022-12-20T00:58:17;101042.91;;;1.63;100.00
51928;BME280;37953;52.806;18.270;2022-12-20T01:00:46;101051.50;;;1.65;100.00
51928;BME280;37953;52.806;18.270;2022-12-20T01:03:12;101052.41;;;1.66;100.00
51928;BME280;37953;52.806;18.270;2022-12-20T01:05:38;101056.69;;;1.67;100.00
51928;BME280;37953;52.806;18.270;2022-12-20T01:08:05;101055.91;;;1.68;100.00
51928;BME280;37953;52.806;18.270;2022-12-20T01:10:32;101049.97;;;1.69;100.00
51928;BME280;37953;52.806;18.270;2022-12-20T01:12:58;101044.94;;;1.70;100.00
51928;BME280;37953;52.806;18.270;2022-12-20T01:15:24;101053.47;;;1.71;100.00
51928;BME280;37953;52.806;18.270;2022-12-20T01:17:53;101057.00;;;1.73;100.00
51928;BME280;37953;52.806;18.270;2022-12-20T01:20:19;101053.56;;;1.72;100.00
51928;BME280;37953;52.806;18.270;2022-12-20T01:22:45;101043.31;;;1.72;100.00
51928;BME280;37953;52.806;18.270;2022-12-20T01:25:11;101054.53;;;1.74;100.00
51928;BME280;37953;52.806;18.270;2022-12-20T01:27:37;101057.16;;;1.76;100.00
51928;BME280;37953;52.806;18.270;2022-12-20T01:30:04;101051.22;;;1.77;100.00
51928;BME280;37953;52.806;18.270;2022-12-20T01:32:30;101051.31;;;1.78;100.00
51928;BME280;37953;52.806;18.270;2022-12-20T01:34:56;101045.34;;;1.79;100.00
51928;BME280;37953;52.806;18.270;2022-12-20T01:37:22;101029.19;;;1.80;100.00
51928;BME280;37953;52.806;18.270;2022-12-20T01:39:48;101023.25;;;1.81;100.00
51928;BME280;37953;52.806;18.270;2022-12-20T01:42:14;101020.78;;;1.83;100.00
51928;BME280;37953;52.806;18.270;2022-12-20T01:47:06;101008.84;;;1.83;100.00
51928;BME280;37953;52.806;18.270;2022-12-20T01:49:55;100997.84;;;1.86;100.00
51928;BME280;37953;52.806;18.270;2022-12-20T01:52:42;101001.31;;;1.87;100.00
51928;BME280;37953;52.806;18.270;2022-12-20T01:55:17;100993.63;;;1.87;100.00
51928;BME280;37953;52.806;18.270;2022-12-20T01:58:04;100980.84;;;1.88;100.00
51928;BME280;37953;52.806;18.270;2022-12-20T02:00:31;100981.69;;;1.87;100.00
51928;BME280;37953;52.806;18.270;2022-12-20T02:03:05;100980.84;;;1.88;100.00
51928;BME280;37953;52.806;18.270;2022-12-20T02:05:35;100983.50;;;1.90;100.00
51928;BME280;37953;52.806;18.270;2022-12-20T02:08:05;100979.25;;;1.90;100.00
51928;BME280;37953;52.806;18.270;2022-12-20T02:14:39;100977.72;;;1.94;100.00
51928;BME280;37953;52.806;18.270;2022-12-20T02:19:55;100978.59;;;1.94;100.00
51928;BME280;37953;52.806;18.270;2022-12-20T02:22:38;100976.91;;;1.95;100.00
51928;BME280;37953;52.806;18.270;2022-12-20T02:31:36;100983.78;;;1.96;100.00
51928;BME280;37953;52.806;18.270;2022-12-20T02:34:04;100979.41;;;1.93;100.00
51928;BME280;37953;52.806;18.270;2022-12-20T02:36:32;100982.91;;;1.95;100.00
51928;BME280;37953;52.806;18.270;2022-12-20T02:38:58;100981.16;;;1.94;100.00
51928;BME280;37953;52.806;18.270;2022-12-20T02:41:40;100978.75;;;1.97;100.00
51928;BME280;37953;52.806;18.270;2022-12-20T02:44:13;100974.41;;;1.96;100.00
51928;BME280;37953;52.806;18.270;2022-12-20T02:47:11;100978.75;;;1.97;100.00
51928;BME280;37953;52.806;18.270;2022-12-20T02:49:39;100976.19;;;1.97;100.00
51928;BME280;37953;52.806;18.270;2022-12-20T02:52:08;100961.66;;;1.98;100.00
51928;BME280;37953;52.806;18.270;2022-12-20T02:54:36;100952.28;;;1.98;100.00
51928;BME280;37953;52.806;18.270;2022-12-20T03:00:03;100950.69;;;2.00;100.00
51928;BME280;37953;52.806;18.270;2022-12-20T03:02:30;100953.13;;;1.97;100.00
51928;BME280;37953;52.806;18.270;2022-12-20T03:05:44;100957.56;;;2.01;100.00
51928;BME280;37953;52.806;18.270;2022-12-20T03:08:11;100956.66;;;2.01;100.00
51928;BME280;37953;52.806;18.270;2022-12-20T03:10:43;100966.91;;;2.01;100.00
51928;BME280;37953;52.806;18.270;2022-12-20T03:13:09;100965.25;;;2.01;100.00
51928;BME280;37953;52.806;18.270;2022-12-20T03:15:36;100973.81;;;2.02;100.00
51928;BME280;37953;52.806;18.270;2022-12-20T03:18:02;100971.34;;;2.03;100.00
51928;BME280;37953;52.806;18.270;2022-12-20T03:20:28;100972.13;;;2.02;100.00
51928;BME280;37953;52.806;18.270;2022-12-20T03:22:54;100978.19;;;2.04;100.00
51928;BME280;37953;52.806;18.270;2022-12-20T03:25:20;100983.31;;;2.04;100.00
51928;BME280;37953;52.806;18.270;2022-12-20T03:27:46;100967.16;;;2.06;100.00
51928;BME280;37953;52.806;18.270;2022-12-20T03:30:13;100978.34;;;2.08;100.00
51928;BME280;37953;52.806;18.270;2022-12-20T03:32:39;100967.19;;;2.07;100.00
51928;BME280;37953;52.806;18.270;2022-12-20T03:35:05;100968.16;;;2.09;100.00
51928;BME280;37953;52.806;18.270;2022-12-20T03:37:31;100963.94;;;2.10;100.00
51928;BME280;37953;52.806;18.270;2022-12-20T03:39:57;100977.69;;;2.12;100.00
51928;BME280;37953;52.806;18.270;2022-12-20T03:42:23;100975.13;;;2.12;100.00
51928;BME280;37953;52.806;18.270;2022-12-20T03:44:50;100977.69;;;2.12;100.00
51928;BME280;37953;52.806;18.270;2022-12-20T03:47:16;100986.25;;;2.12;100.00
51928;BME280;37953;52.806;18.270;2022-12-20T03:49:42;100985.38;;;2.12;100.00
51928;BME280;37953;52.806;18.270;2022-12-20T03:52:11;100984.63;;;2.14;100.00
51928;BME280;37953;52.806;18.270;2022-12-20T03:54:37;100980.38;;;2.15;100.00
51928;BME280;37953;52.806;18.270;2022-12-20T03:57:03;100976.94;;;2.14;100.00
51928;BME280;37953;52.806;18.270;2022-12-20T03:59:29;100972.75;;;2.16;100.00
51928;BME280;37953;52.806;18.270;2022-12-20T04:01:55;100967.63;;;2.16;100.00
51928;BME280;37953;52.806;18.270;2022-12-20T04:04:22;100950.56;;;2.17;100.00
51928;BME280;37953;52.806;18.270;2022-12-20T04:06:48;100962.56;;;2.18;100.00
51928;BME280;37953;52.806;18.270;2022-12-20T04:09:14;100954.88;;;2.18;100.00
51928;BME280;37953;52.806;18.270;2022-12-20T04:11:40;100952.38;;;2.19;100.00
51928;BME280;37953;52.806;18.270;2022-12-20T04:14:06;100966.97;;;2.20;100.00
51928;BME280;37953;52.806;18.270;2022-12-20T04:16:32;100957.59;;;2.21;100.00
51928;BME280;37953;52.806;18.270;2022-12-20T04:18:58;100961.88;;;2.22;100.00
51928;BME280;37953;52.806;18.270;2022-12-20T04:21:29;100961.97;;;2.23;100.00
51928;BME280;37953;52.806;18.270;2022-12-20T04:23:57;100955.13;;;2.24;100.00
51928;BME280;37953;52.806;18.270;2022-12-20T04:26:26;100966.28;;;2.24;100.00
51928;BME280;37953;52.806;18.270;2022-12-20T04:28:53;100958.59;;;2.24;100.00
51928;BME280;37953;52.806;18.270;2022-12-20T04:31:19;100969.81;;;2.27;100.00
51928;BME280;37953;52.806;18.270;2022-12-20T04:36:14;100960.41;;;2.27;100.00
51928;BME280;37953;52.806;18.270;2022-12-20T04:38:41;100959.56;;;2.27;100.00
51928;BME280;37953;52.806;18.270;2022-12-20T04:41:06;100965.63;;;2.29;100.00
51928;BME280;37953;52.806;18.270;2022-12-20T04:43:33;100963.94;;;2.29;100.00
51928;BME280;37953;52.806;18.270;2022-12-20T04:46:02;100951.16;;;2.31;100.00
51928;BME280;37953;52.806;18.270;2022-12-20T04:48:28;100957.97;;;2.30;100.00
51928;BME280;37953;52.806;18.270;2022-12-20T04:50:57;100948.66;;;2.32;100.00
51928;BME280;37953;52.806;18.270;2022-12-20T04:53:23;100950.34;;;2.32;100.00
51928;BME280;37953;52.806;18.270;2022-12-20T04:56:08;100949.53;;;2.33;100.00
51928;BME280;37953;52.806;18.270;2022-12-20T04:58:34;100947.03;;;2.34;100.00
51928;BME280;37953;52.806;18.270;2022-12-20T05:01:00;100959.88;;;2.34;100.00
51928;BME280;37953;52.806;18.270;2022-12-20T05:03:26;100956.50;;;2.35;100.00
51928;BME280;37953;52.806;18.270;2022-12-20T05:05:53;100958.13;;;2.33;100.00
51928;BME280;37953;52.806;18.270;2022-12-20T05:08:19;100960.72;;;2.35;100.00
51928;BME280;37953;52.806;18.270;2022-12-20T05:10:46;100955.69;;;2.36;100.00
51928;BME280;37953;52.806;18.270;2022-12-20T05:13:16;100957.44;;;2.37;100.00
51928;BME280;37953;52.806;18.270;2022-12-20T05:15:42;100951.50;;;2.38;100.00
51928;BME280;37953;52.806;18.270;2022-12-20T05:18:08;100948.06;;;2.38;100.00
51928;BME280;37953;52.806;18.270;2022-12-20T05:20:35;100948.13;;;2.39;100.00
51928;BME280;37953;52.806;18.270;2022-12-20T05:23:03;100942.94;;;2.38;100.00
51928;BME280;37953;52.806;18.270;2022-12-20T05:25:49;100954.22;;;2.41;100.00
51928;BME280;37953;52.806;18.270;2022-12-20T05:28:34;100943.97;;;2.41;100.00
51928;BME280;37953;52.806;18.270;2022-12-20T05:31:01;100938.84;;;2.41;100.00
51928;BME280;37953;52.806;18.270;2022-12-20T05:33:27;100946.56;;;2.43;100.00
51928;BME280;37953;52.806;18.270;2022-12-20T05:35:54;100944.81;;;2.42;100.00
51928;BME280;37953;52.806;18.270;2022-12-20T05:38:22;100932.00;;;2.42;100.00
51928;BME280;37953;52.806;18.270;2022-12-20T05:40:48;100943.22;;;2.44;100.00
51928;BME280;37953;52.806;18.270;2022-12-20T05:43:15;100924.44;;;2.45;100.00
51928;BME280;37953;52.806;18.270;2022-12-20T05:45:49;100930.47;;;2.46;100.00
51928;BME280;37953;52.806;18.270;2022-12-20T05:48:17;100930.47;;;2.46;100.00
51928;BME280;37953;52.806;18.270;2022-12-20T05:50:46;100926.19;;;2.46;100.00
51928;BME280;37953;52.806;18.270;2022-12-20T05:53:14;100927.06;;;2.47;100.00
51928;BME280;37953;52.806;18.270;2022-12-20T05:55:48;100920.31;;;2.49;100.00
51928;BME280;37953;52.806;18.270;2022-12-20T05:58:15;100920.25;;;2.47;100.00
51928;BME280;37953;52.806;18.270;2022-12-20T06:00:42;100925.44;;;2.49;100.00
51928;BME280;37953;52.806;18.270;2022-12-20T06:03:14;100928.88;;;2.49;100.00
51928;BME280;37953;52.806;18.270;2022-12-20T06:05:41;100916.94;;;2.50;100.00
51928;BME280;37953;52.806;18.270;2022-12-20T06:08:09;100920.41;;;2.50;100.00
51928;BME280;37953;52.806;18.270;2022-12-20T06:10:39;100922.13;;;2.51;100.00
51928;BME280;37953;52.806;18.270;2022-12-20T06:13:07;100921.25;;;2.51;100.00
51928;BME280;37953;52.806;18.270;2022-12-20T06:15:34;100930.69;;;2.52;100.00
51928;BME280;37953;52.806;18.270;2022-12-20T06:18:06;100934.19;;;2.54;100.00
51928;BME280;37953;52.806;18.270;2022-12-20T06:20:36;100933.34;;;2.53;100.00
51928;BME280;37953;52.806;18.270;2022-12-20T06:23:03;100928.13;;;2.52;100.00
51928;BME280;37953;52.806;18.270;2022-12-20T06:25:29;100929.91;;;2.53;100.00
51928;BME280;37953;52.806;18.270;2022-12-20T06:27:55;100925.63;;;2.53;100.00
51928;BME280;37953;52.806;18.270;2022-12-20T06:30:22;100936.75;;;2.54;100.00
51928;BME280;37953;52.806;18.270;2022-12-20T06:32:48;100928.13;;;2.52;100.00
51928;BME280;37953;52.806;18.270;2022-12-20T06:35:14;100935.16;;;2.56;100.00
51928;BME280;37953;52.806;18.270;2022-12-20T06:37:41;100932.53;;;2.54;100.00
51928;BME280;37953;52.806;18.270;2022-12-20T06:40:08;100930.00;;;2.56;100.00
51928;BME280;37953;52.806;18.270;2022-12-20T06:42:40;100930.00;;;2.56;100.00
51928;BME280;37953;52.806;18.270;2022-12-20T06:45:07;100941.22;;;2.58;100.00
51928;BME280;37953;52.806;18.270;2022-12-20T06:47:34;100942.13;;;2.58;100.00
51928;BME280;37953;52.806;18.270;2022-12-20T06:50:00;100942.13;;;2.58;100.00
51928;BME280;37953;52.806;18.270;2022-12-20T06:52:27;100960.13;;;2.60;100.00
51928;BME280;37953;52.806;18.270;2022-12-20T06:54:53;100954.97;;;2.60;100.00
51928;BME280;37953;52.806;18.270;2022-12-20T06:57:19;100949.06;;;2.61;100.00
51928;BME280;37953;52.806;18.270;2022-12-20T06:59:45;100949.94;;;2.61;100.00
51928;BME280;37953;52.806;18.270;2022-12-20T07:02:12;100956.81;;;2.62;100.00
51928;BME280;37953;52.806;18.270;2022-12-20T07:04:38;100949.19;;;2.64;100.00
51928;BME280;37953;52.806;18.270;2022-12-20T07:07:05;100938.91;;;2.64;100.00
51928;BME280;37953;52.806;18.270;2022-12-20T07:09:37;100943.25;;;2.65;100.00
51928;BME280;37953;52.806;18.270;2022-12-20T07:12:07;100941.47;;;2.64;100.00
51928;BME280;37953;52.806;18.270;2022-12-20T07:14:39;100941.47;;;2.64;100.00
51928;BME280;37953;52.806;18.270;2022-12-20T07:17:05;100956.88;;;2.64;100.00
51928;BME280;37953;52.806;18.270;2022-12-20T07:19:32;100958.69;;;2.67;100.00
51928;BME280;37953;52.806;18.270;2022-12-20T07:21:59;100955.25;;;2.66;100.00
51928;BME280;37953;52.806;18.270;2022-12-20T07:24:24;100959.59;;;2.67;100.00
51928;BME280;37953;52.806;18.270;2022-12-20T07:26:51;100956.19;;;2.68;100.00
51928;BME280;37953;52.806;18.270;2022-12-20T07:29:17;100963.97;;;2.70;100.00
51928;BME280;37953;52.806;18.270;2022-12-20T07:31:43;100964.03;;;2.71;100.00
51928;BME280;37953;52.806;18.270;2022-12-20T07:34:09;100983.72;;;2.72;100.00
51928;BME280;37953;52.806;18.270;2022-12-20T07:36:36;100970.97;;;2.74;100.00
51928;BME280;37953;52.806;18.270;2022-12-20T07:39:02;100963.28;;;2.74;100.00
51928;BME280;37953;52.806;18.270;2022-12-20T07:41:28;100962.44;;;2.75;100.00
51928;BME280;37953;52.806;18.270;2022-12-20T07:43:54;100970.22;;;2.76;100.00
51928;BME280;37953;52.806;18.270;2022-12-20T07:46:20;100966.78;;;2.76;100.00
51928;BME280;37953;52.806;18.270;2022-12-20T07:48:46;100968.53;;;2.77;100.00
51928;BME280;37953;52.806;18.270;2022-12-20T07:51:17;100972.00;;;2.77;100.00
51928;BME280;37953;52.806;18.270;2022-12-20T07:53:47;100970.28;;;2.78;100.00
51928;BME280;37953;52.806;18.270;2022-12-20T07:56:15;100969.44;;;2.77;100.00
51928;BME280;37953;52.806;18.270;2022-12-20T07:58:43;100964.34;;;2.79;100.00
51928;BME280;37953;52.806;18.270;2022-12-20T08:01:10;100958.34;;;2.78;100.00
51928;BME280;37953;52.806;18.270;2022-12-20T08:03:42;100969.47;;;2.79;100.00
51928;BME280;37953;52.806;18.270;2022-12-20T08:06:12;100964.41;;;2.80;100.00
51928;BME280;37953;52.806;18.270;2022-12-20T08:08:44;100970.47;;;2.82;100.00
51928;BME280;37953;52.806;18.270;2022-12-20T08:11:13;100972.22;;;2.83;100.00
51928;BME280;37953;52.806;18.270;2022-12-20T08:13:40;100973.91;;;2.83;100.00
51928;BME280;37953;52.806;18.270;2022-12-20T08:16:06;100974.00;;;2.84;100.00
51928;BME280;37953;52.806;18.270;2022-12-20T08:18:32;100971.44;;;2.84;100.00
51928;BME280;37953;52.806;18.270;2022-12-20T08:20:58;100957.72;;;2.84;100.00
51928;BME280;37953;52.806;18.270;2022-12-20T08:23:25;100964.75;;;2.88;100.00
51928;BME280;37953;52.806;18.270;2022-12-20T08:25:51;100960.47;;;2.89;100.00
51928;BME280;37953;52.806;18.270;2022-12-20T08:28:17;100960.34;;;2.85;100.00
51928;BME280;37953;52.806;18.270;2022-12-20T08:30:43;100969.91;;;2.90;100.00
51928;BME280;37953;52.806;18.270;2022-12-20T08:33:10;100971.69;;;2.91;100.00
51928;BME280;37953;52.806;18.270;2022-12-20T08:35:36;100973.44;;;2.92;100.00
51928;BME280;37953;52.806;18.270;2022-12-20T08:38:02;100975.28;;;2.94;100.00
51928;BME280;37953;52.806;18.270;2022-12-20T08:40:28;100968.44;;;2.95;100.00
51928;BME280;37953;52.806;18.270;2022-12-20T08:42:54;100974.44;;;2.95;100.00
51928;BME280;37953;52.806;18.270;2022-12-20T08:45:20;100971.88;;;2.95;100.00
51928;BME280;37953;52.806;18.270;2022-12-20T08:47:46;100974.50;;;2.97;100.00
51928;BME280;37953;52.806;18.270;2022-12-20T08:50:12;100962.56;;;2.97;100.00
51928;BME280;37953;52.806;18.270;2022-12-20T08:52:38;100970.19;;;2.96;100.00
51928;BME280;37953;52.806;18.270;2022-12-20T08:55:11;100961.72;;;2.98;100.00
51928;BME280;37953;52.806;18.270;2022-12-20T08:57:37;100952.34;;;2.99;100.00
51928;BME280;37953;52.806;18.270;2022-12-20T09:00:03;100960.94;;;2.99;100.00
51928;BME280;37953;52.806;18.270;2022-12-20T09:02:29;100958.44;;;3.01;100.00
51928;BME280;37953;52.806;18.270;2022-12-20T09:04:56;100963.69;;;3.04;100.00
51928;BME280;37953;52.806;18.270;2022-12-20T09:07:22;100956.84;;;3.04;100.00
51928;BME280;37953;52.806;18.270;2022-12-20T09:09:48;100957.75;;;3.05;100.00
51928;BME280;37953;52.806;18.270;2022-12-20T09:12:14;100962.03;;;3.06;100.00
51928;BME280;37953;52.806;18.270;2022-12-20T09:14:40;100964.69;;;3.08;100.00
51928;BME280;37953;52.806;18.270;2022-12-20T09:17:07;100973.25;;;3.08;100.00
51928;BME280;37953;52.806;18.270;2022-12-20T09:19:33;100953.59;;;3.09;100.00
51928;BME280;37953;52.806;18.270;2022-12-20T09:21:59;100953.66;;;3.10;100.00
51928;BME280;37953;52.806;18.270;2022-12-20T09:24:25;100940.75;;;3.09;100.00
51928;BME280;37953;52.806;18.270;2022-12-20T09:26:51;100950.28;;;3.11;100.00
51928;BME280;37953;52.806;18.270;2022-12-20T09:29:17;100948.63;;;3.13;100.00
51928;BME280;37953;52.806;18.270;2022-12-20T09:31:43;100938.38;;;3.13;100.00
51928;BME280;37953;52.806;18.270;2022-12-20T09:36:37;100953.09;;;3.17;100.00
51928;BME280;37953;52.806;18.270;2022-12-20T09:39:03;100957.50;;;3.20;100.00
51928;BME280;37953;52.806;18.270;2022-12-20T09:41:40;100960.22;;;3.24;100.00
51928;BME280;37953;52.806;18.270;2022-12-20T09:44:16;100956.91;;;3.27;100.00
51928;BME280;37953;52.806;18.270;2022-12-20T09:46:46;100955.28;;;3.29;100.00
51928;BME280;37953;52.806;18.270;2022-12-20T09:49:17;100957.09;;;3.32;100.00
51928;BME280;37953;52.806;18.270;2022-12-20T10:00:40;100937.63;;;3.37;100.00
51928;BME280;37953;52.806;18.270;2022-12-20T10:03:12;100949.63;;;3.38;100.00
51928;BME280;37953;52.806;18.270;2022-12-20T10:08:48;100920.50;;;3.37;100.00
51928;BME280;37953;52.806;18.270;2022-12-20T10:11:27;100909.38;;;3.37;100.00
51928;BME280;37953;52.806;18.270;2022-12-20T10:14:24;100915.38;;;3.37;100.00
51928;BME280;37953;52.806;18.270;2022-12-20T10:23:07;100919.75;;;3.40;100.00
51928;BME280;37953;52.806;18.270;2022-12-20T10:25:35;100924.81;;;3.38;100.00
51928;BME280;37953;52.806;18.270;2022-12-20T10:28:04;100913.75;;;3.39;100.00
51928;BME280;37953;52.806;18.270;2022-12-20T10:30:35;100918.88;;;3.39;100.00
51928;BME280;37953;52.806;18.270;2022-12-20T10:33:01;100913.69;;;3.38;100.00
51928;BME280;37953;52.806;18.270;2022-12-20T10:35:30;100906.84;;;3.38;100.00
51928;BME280;37953;52.806;18.270;2022-12-20T10:38:07;100900.03;;;3.39;100.00
51928;BME280;37953;52.806;18.270;2022-12-20T10:40:44;100899.13;;;3.38;100.00
51928;BME280;37953;52.806;18.270;2022-12-20T10:43:39;100890.69;;;3.41;100.00
51928;BME280;37953;52.806;18.270;2022-12-20T10:46:07;100888.94;;;3.40;100.00
51928;BME280;37953;52.806;18.270;2022-12-20T10:48:38;100886.38;;;3.40;100.00
51928;BME280;37953;52.806;18.270;2022-12-20T10:53:56;100870.25;;;3.44;100.00
51928;BME280;37953;52.806;18.270;2022-12-20T10:56:32;100860.03;;;3.45;100.00
51928;BME280;37953;52.806;18.270;2022-12-20T10:59:01;100862.63;;;3.45;100.00
51928;BME280;37953;52.806;18.270;2022-12-20T11:01:33;100854.94;;;3.47;100.00
51928;BME280;37953;52.806;18.270;2022-12-20T11:04:05;100854.94;;;3.47;100.00
51928;BME280;37953;52.806;18.270;2022-12-20T11:06:39;100858.44;;;3.49;100.00
51928;BME280;37953;52.806;18.270;2022-12-20T11:12:10;100843.09;;;3.51;100.00
51928;BME280;37953;52.806;18.270;2022-12-20T11:14:37;100842.16;;;3.49;100.00
51928;BME280;37953;52.806;18.270;2022-12-20T11:22:50;100854.38;;;3.54;100.00
51928;BME280;37953;52.806;18.270;2022-12-20T11:33:31;100873.28;;;3.56;100.00
51928;BME280;37953;52.806;18.270;2022-12-20T11:36:05;100877.59;;;3.57;100.00
51928;BME280;37953;52.806;18.270;2022-12-20T11:38:42;100875.09;;;3.59;100.00
51928;BME280;37953;52.806;18.270;2022-12-20T11:41:30;100875.19;;;3.62;100.00
51928;BME280;37953;52.806;18.270;2022-12-20T11:50:34;100871.88;;;3.64;100.00
51928;BME280;37953;52.806;18.270;2022-12-20T11:53:19;100871.06;;;3.65;100.00
51928;BME280;37953;52.806;18.270;2022-12-20T11:56:05;100874.50;;;3.66;100.00
51928;BME280;37953;52.806;18.270;2022-12-20T12:01:28;100869.47;;;3.69;100.00
51928;BME280;37953;52.806;18.270;2022-12-20T12:06:34;100858.34;;;3.69;100.00
51928;BME280;37953;52.806;18.270;2022-12-20T12:11:33;100843.03;;;3.72;100.00
51928;BME280;37953;52.806;18.270;2022-12-20T12:14:02;100843.16;;;3.75;100.00
51928;BME280;37953;52.806;18.270;2022-12-20T12:16:41;100841.50;;;3.77;100.00
51928;BME280;37953;52.806;18.270;2022-12-20T12:19:12;100837.19;;;3.76;100.00
51928;BME280;37953;52.806;18.270;2022-12-20T12:21:49;100836.38;;;3.77;100.00
51928;BME280;37953;52.806;18.270;2022-12-20T12:27:28;100831.41;;;3.81;100.00
51928;BME280;37953;52.806;18.270;2022-12-20T12:29:57;100828.81;;;3.81;100.00
51928;BME280;37953;52.806;18.270;2022-12-20T12:32:44;100822.84;;;3.82;100.00
51928;BME280;37953;52.806;18.270;2022-12-20T12:43:50;100832.31;;;3.83;100.00
51928;BME280;37953;52.806;18.270;2022-12-20T12:46:31;100831.44;;;3.83;100.00
51928;BME280;37953;52.806;18.270;2022-12-20T12:51:53;100819.47;;;3.83;100.00
51928;BME280;37953;52.806;18.270;2022-12-20T12:54:23;100815.19;;;3.84;100.00
51928;BME280;37953;52.806;18.270;2022-12-20T12:56:52;100820.34;;;3.84;100.00
51928;BME280;37953;52.806;18.270;2022-12-20T13:04:59;100816.13;;;3.86;100.00
51928;BME280;37953;52.806;18.270;2022-12-20T13:09:53;100805.00;;;3.87;100.00
51928;BME280;37953;52.806;18.270;2022-12-20T13:17:51;100781.88;;;3.87;100.00
51928;BME280;37953;52.806;18.270;2022-12-20T13:25:50;100788.88;;;3.91;100.00
51928;BME280;37953;52.806;18.270;2022-12-20T13:33:48;100785.56;;;3.94;100.00
51928;BME280;37953;52.806;18.270;2022-12-20T13:41:32;100783.16;;;3.98;100.00
51928;BME280;37953;52.806;18.270;2022-12-20T13:44:19;100793.47;;;4.00;100.00
51928;BME280;37953;52.806;18.270;2022-12-20T13:49:48;100786.66;;;4.00;100.00
51928;BME280;37953;52.806;18.270;2022-12-20T13:54:56;100776.53;;;4.05;100.00
51928;BME280;37953;52.806;18.270;2022-12-20T13:57:40;100781.53;;;4.02;100.00
51928;BME280;37953;52.806;18.270;2022-12-20T14:00:22;100767.81;;;4.01;100.00
51928;BME280;37953;52.806;18.270;2022-12-20T14:02:50;100770.38;;;4.01;100.00
51928;BME280;37953;52.806;18.270;2022-12-20T14:05:26;100769.53;;;4.01;100.00
51928;BME280;37953;52.806;18.270;2022-12-20T14:08:08;100770.38;;;4.01;100.00
51928;BME280;37953;52.806;18.270;2022-12-20T14:10:35;100774.72;;;4.02;100.00
51928;BME280;37953;52.806;18.270;2022-12-20T14:13:25;100778.22;;;4.04;100.00
51928;BME280;37953;52.806;18.270;2022-12-20T14:15:53;100787.59;;;4.04;100.00
51928;BME280;37953;52.806;18.270;2022-12-20T14:18:21;100782.47;;;4.04;100.00
51928;BME280;37953;52.806;18.270;2022-12-20T14:20:59;100778.22;;;4.04;100.00
51928;BME280;37953;52.806;18.270;2022-12-20T14:23:35;100773.13;;;4.06;100.00
51928;BME280;37953;52.806;18.270;2022-12-20T14:26:29;100763.66;;;4.05;100.00
51928;BME280;37953;52.806;18.270;2022-12-20T14:28:57;100764.47;;;4.04;100.00
51928;BME280;37953;52.806;18.270;2022-12-20T14:31:36;100753.31;;;4.03;100.00
51928;BME280;37953;52.806;18.270;2022-12-20T14:36:39;100754.81;;;3.97;100.00
51928;BME280;37953;52.806;18.270;2022-12-20T14:44:34;100758.38;;;4.00;100.00
51928;BME280;37953;52.806;18.270;2022-12-20T14:47:03;100759.25;;;4.01;100.00
51928;BME280;37953;52.806;18.270;2022-12-20T14:49:37;100758.31;;;3.99;100.00
51928;BME280;37953;52.806;18.270;2022-12-20T14:57:49;100742.06;;;4.00;100.00
51928;BME280;37953;52.806;18.270;2022-12-20T15:00:28;100736.03;;;3.99;100.00
51928;BME280;37953;52.806;18.270;2022-12-20T15:05:46;100707.78;;;3.99;100.00
51928;BME280;37953;52.806;18.270;2022-12-20T15:08:20;100702.63;;;3.99;100.00
51928;BME280;37953;52.806;18.270;2022-12-20T15:13:42;100716.41;;;4.01;100.00
51928;BME280;37953;52.806;18.270;2022-12-20T15:16:24;100725.81;;;4.01;100.00
51928;BME280;37953;52.806;18.270;2022-12-20T15:19:01;100736.09;;;4.01;100.00